AirNav   Duncan Aviation - Near you to keep you flying
 
 1380 users online  

4M1 Carroll County Airport
Berryville, Arkansas, USA

GOING TO BERRYVILLE?


FAA INFORMATION EFFECTIVE 26 JANUARY 2023

Location

FAA Identifier: 4M1
Lat/Long: 36-22-52.8310N 093-37-28.3450W
36-22.880517N 093-37.472417W
36.3813419,-93.6245403
(estimated)
Elevation: 1205.6 ft. / 367.5 m (surveyed)
Variation: 02E (2010)
From city: 3 miles W of BERRYVILLE, AR
Time zone: UTC -6 (UTC -5 during Daylight Saving Time)
Zip code: 72616

Airport Operations

Airport use: Open to the public
Activation date: 05/1966
Control tower: no
ARTCC: MEMPHIS CENTER
FSS: JONESBORO FLIGHT SERVICE STATION
NOTAMs facility: JBR (NOTAM-D service available)
Attendance: WED - SUN 0800-1700
Wind indicator: lighted
Segmented circle: yes
Lights: ACTVT REIL RWY 07 & 25; PAPI RWY 07 & 25, MIRL RWY 07/25; TWY LGTS - CTAF.
Beacon: white-green (lighted land airport)
Operates sunset to sunrise.

Airport Communications

CTAF: 122.9
RAZORBACK APPROACH: 126.6
RAZORBACK DEPARTURE: 126.6
  • APCH/DEP SVC PRVDD BY MEMPHIS ARTCC ON FREQS 126.1/269.0 (FAYETTEVILLE RCAG) WHEN RAZORBACK APCH CTL CLSD.

Nearby radio navigation aids

VOR radial/distance  VOR name  Freq  Var
HROr277/20.2HARRISON VOR/DME112.5004E
RZCr067/25.3RAZORBACK VORTAC116.4004E

Airport Services

Fuel available: 100LL
100LL:FUEL AVBL 24 HR SELF SERVE WITH CREDIT CARD.
Parking: hangars and tiedowns
Airframe service: MAJOR
Powerplant service: MAJOR
Bottled oxygen: NONE
Bulk oxygen: NONE

Runway Information

Runway 7/25

Dimensions: 3555 x 75 ft. / 1084 x 23 m
Surface: asphalt, in good condition
Weight bearing capacity: 
Single wheel: 12.0
Runway edge lights: medium intensity
RUNWAY 7  RUNWAY 25
Latitude: 36-22.796903N36-22.964125N
Longitude: 093-37.819583W093-37.125227W
Elevation: 1166.9 ft.1205.1 ft.
Traffic pattern: leftleft
Runway heading: 071 magnetic, 073 true251 magnetic, 253 true
Markings: nonprecision, in good conditionnonprecision, in good condition
Visual slope indicator: 2-light PAPI on left (3.00 degrees glide path)2-light PAPI on left (3.00 degrees glide path)
Runway end identifier lights: yesyes
Touchdown point: yes, no lightsyes, no lights
Obstructions: 11 ft. trees, 300 ft. from runway, 215 ft. left of centerline, 9:1 slope to clear23 ft. trees, 600 ft. from runway, 135 ft. left of centerline, 17:1 slope to clear

Airport Ownership and Management from official FAA records

Ownership: Publicly-owned
Owner: CARROLL COUNTY
210 WEST CHURCH ST.
BERRYVILLE, AR 72616
Phone 870-423-2967
Manager: DAVE TEIGEN
518 COUNTY ROAD 308
BERRYVILLE, AR 72616
Phone 870-423-8393

Airport Operational Statistics

Aircraft based on the field: 38
Single engine airplanes: 33
Multi engine airplanes: 4
Jet airplanes: 1
    
Aircraft operations: avg 98/week *
59% transient general aviation
39% local general aviation
2% military
* for 12-month period ending 30 June 2020

Additional Remarks

NO LINE OF SIGHT BTN RY ENDS.
ULTRALIGHT ACTIVITY ON & INVOF ARPT.
DEER ON & INVOF ARPT.
FOR CD CTC RAZORBACK APCH 479-649-2416, WHEN APCH CLSD CTC MEMPHIS ARTCC AT 901-368-8453/8449.

Instrument Procedures

NOTE: All procedures below are presented as PDF files. If you need a reader for these files, you should download the free Adobe Reader.

NOT FOR NAVIGATION. Please procure official charts for flight.
FAA instrument procedures published for use from 26 January 2023 at 0901Z to 23 February 2023 at 0900z.

 
IAPs - Instrument Approach Procedures
RNAV (GPS) RWY 07   download
RNAV (GPS) RWY 25   download
NOTE: Special Take-Off Minimums/Departure Procedures apply   download (131KB)

Other nearby airports with instrument procedures:

H34 - Huntsville Municipal Airport (19 nm S)
KFWB - Branson West Municipal Airport - Emerson Field (22 nm NE)
KBBG - Branson Airport (22 nm NE)
94K - Cassville Municipal Airport (23 nm NW)
KROG - Rogers Executive Airport - Carter Field (23 nm W)
 
Loc | Ops | Rwys | IFR | FBO | Links
Com | Nav | Svcs | Stats | Notes

Branson Jet Center
AirBoss

 
Area around 4M1 (Carroll County Airport)
 
Road maps at: MapQuest Bing Google
 
Aerial photo
WARNING: Photo may not be current or correct
Aerial photo of 4M1 (Carroll County Airport)
Photo courtesy of the Arkansas Department of Aeronautics
Taken in the Spring of 2007

Do you have a better or more recent aerial photo of Carroll County Airport that you would like to share? If so, please send us your photo.

 
Sectional chart

 
Airport distance calculator
Flying to Carroll County Airport? Find the distance to fly.

From to 4M1

Sunrise and sunset
Times for 01-Feb-2023
 Local
(UTC-6)
 Zulu
(UTC)
Morning civil twilight06:5012:50
Sunrise07:1713:17
Sunset17:3923:39
Evening civil twilight18:0700:07

Current date and time
Zulu (UTC)  01-Feb-2023 23:27:47
Local (UTC-6)  01-Feb-2023 17:27:47
 
METAR
KFWB 
22nm NE 
012315Z AUTO 00000KT 10SM CLR M01/M10 A3027 RMK AO2
KROG 
22nm W 
012258Z 00000KT 10SM CLR M01/M07 A3028 RMK AO2 SLP269 T10111072
KBBG 
22nm NE 
012245Z 00000KT 10SM CLR M01/M08 A3029
KHRO 
24nm E 
012253Z AUTO 17003KT 10SM CLR M02/M07 A3029 RMK AO2 SLP272 T10171067
KASG 
27nm SW 
012248Z 00000KT 10SM CLR M01/M04 A3029
KVBT 
29nm W 
012256Z AUTO 00000KT 10SM CLR M01/M06 A3029 RMK AO2 SLP277 T10111061 FZRANO
KXNA 
33nm W 
012253Z 00000KT 10SM CLR M01/M07 A3027 RMK AO2 SLP265 T10061072
KFYV 
34nm SW 
012253Z 34004KT 9SM OVC016 M01/M04 A3027 RMK AO2 SLP263 T10061039
KHFJ 
37nm NW 
012315Z AUTO 00000KT 10SM CLR M02/M08 A3027 RMK AO2
KSLG 
42nm W 
012256Z AUTO 00000KT 10SM CLR M01/M06 A3028 RMK AO2 SLP266 T10111056 FZRANO
TAF
KROG 
22nm W 
011120Z 0112/0212 03003KT P6SM BKN250 FM011600 VRB04KT P6SM BKN100 FM020000 VRB03KT P6SM BKN035 PROB30 0203/0209 5SM -FZRA BR OVC025 FM020900 VRB03KT P6SM OVC015
KBBG 
22nm NE 
011732Z 0118/0218 VRB04KT P6SM SCT100 BKN250
KHRO 
24nm E 
011720Z 0118/0218 13005KT P6SM OVC120 FM020400 VRB03KT P6SM OVC150 FM021600 28005KT P6SM OVC200
NOTAMs
Click for the latest NOTAMs
NOTAMs are issued by the DoD/FAA and will open in a separate window not controlled by AirNav.

 

 
 

FBO, Fuel Providers, and Aircraft Ground Support

  
 Business Name 
 
 Contact 
 
 Services / Description 
 
Fuel Prices
 
Comments
  
Carroll County Airport 870-423-8393
870-423-2120
[web site]
[email]

Like us on facebook
Airport management, Aviation fuel, Aircraft parking (ramp or tiedown), Hangars, Hangar leasing / sales, Passenger terminal and lounge, Flight training, ...
 
Titan Contract Fuel  
 
More info about Carroll County Airport
Titan
100LL
SS $4.54 
 Updated 25-Jan-2023
 
   2 read write
SS=Self service
Update Fuel Prices
 

Would you like to see your business listed on this page?

 If your business provides an interesting product or service to pilots, flight crews, aircraft, or users of the Carroll County Airport, you should consider listing it here.  To start the listing process, click on the button below
 
Add a business
 

Other Pages about Carroll County Airport

co.carroll.ar.us
Carroll County Airport
 
Update a link
 
Copyright © AirNav, LLC. All rights reserved. Privacy Policy  Contact